Time;durP1;ratioP1;P1;durP2;ratioP2;P2;SDS_P1;SDS_P2;PMS_P1;PMS_P2;Temp;Humidity;BMP_temperature;BMP_pressure;BME280_temperature;BME280_humidity;BME280_pressure;Samples;Min_cycle;Max_cycle;Signal;HPM_P1;HPM_P2
2022/12/09 00:01:19;;;;;;;4.72;2.90;;;20.40;34.00;;;;;;5053194;28;20440;-55
2022/12/09 00:03:46;;;;;;;2.85;2.38;;;20.40;34.00;;;;;;5055242;28;20033;-57
2022/12/09 00:06:19;;;;;;;3.40;2.83;;;20.40;34.00;;;;;;5054739;28;20041;-53
2022/12/09 00:08:45;;;;;;;4.07;3.05;;;20.30;33.90;;;;;;5047575;28;20033;-58
2022/12/09 00:11:11;;;;;;;4.03;3.20;;;20.30;33.90;;;;;;5035191;28;20033;-54
2022/12/09 00:13:37;;;;;;;3.75;2.67;;;20.30;33.90;;;;;;5053654;28;20071;-55
2022/12/09 00:16:11;;;;;;;3.45;2.65;;;20.30;33.80;;;;;;5054939;28;20033;-58
2022/12/09 00:18:38;;;;;;;4.25;2.58;;;20.30;33.80;;;;;;5054148;28;20340;-55
2022/12/09 00:21:31;;;;;;;4.53;2.80;;;20.30;33.70;;;;;;5051045;28;20037;-53
2022/12/09 00:23:59;;;;;;;4.30;2.67;;;20.30;33.70;;;;;;5034969;28;20052;-55
2022/12/09 00:26:26;;;;;;;3.33;2.88;;;20.30;33.70;;;;;;5030582;28;20040;-53
2022/12/09 00:28:53;;;;;;;2.95;2.20;;;20.30;33.70;;;;;;5055132;28;20029;-53
2022/12/09 00:31:23;;;;;;;3.20;2.63;;;20.30;33.70;;;;;;5049507;28;20028;-55
2022/12/09 00:33:50;;;;;;;3.33;2.85;;;20.20;33.60;;;;;;5052694;28;20029;-57
2022/12/09 00:36:18;;;;;;;4.47;2.97;;;20.20;33.60;;;;;;5045290;28;20189;-55
2022/12/09 00:38:44;;;;;;;3.42;2.83;;;20.20;33.60;;;;;;5034692;28;20065;-58
2022/12/09 00:41:11;;;;;;;2.88;2.40;;;20.20;33.60;;;;;;5034905;28;20033;-53
2022/12/09 00:43:38;;;;;;;5.25;2.75;;;20.20;33.60;;;;;;5025142;28;20116;-52
2022/12/09 00:46:04;;;;;;;3.30;2.83;;;20.20;33.70;;;;;;5054720;28;20021;-55
2022/12/09 00:48:30;;;;;;;3.53;2.85;;;20.20;33.70;;;;;;5054403;28;20039;-53
2022/12/09 00:50:55;;;;;;;3.38;2.95;;;20.20;33.80;;;;;;5047661;28;20024;-56
2022/12/09 00:53:21;;;;;;;3.05;2.60;;;20.20;33.70;;;;;;5051558;28;20033;-54
2022/12/09 00:55:47;;;;;;;3.63;3.00;;;20.20;33.70;;;;;;5041997;28;20520;-55
2022/12/09 00:58:13;;;;;;;3.30;3.00;;;20.20;33.70;;;;;;5054789;28;20104;-55
2022/12/09 01:00:39;;;;;;;3.70;3.30;;;20.20;33.70;;;;;;5036853;28;20052;-56
2022/12/09 01:03:05;;;;;;;4.47;3.03;;;20.20;33.70;;;;;;5054652;28;20057;-50
2022/12/09 01:05:34;;;;;;;3.67;2.97;;;20.20;33.70;;;;;;5053453;28;20025;-57
2022/12/09 01:08:00;;;;;;;3.90;3.15;;;20.20;33.70;;;;;;5028666;28;20037;-55
2022/12/09 01:10:26;;;;;;;4.20;3.13;;;20.10;33.70;;;;;;5053488;28;20559;-55
2022/12/09 01:12:52;;;;;;;4.75;3.28;;;20.10;33.70;;;;;;5054559;28;20049;-53
2022/12/09 01:15:17;;;;;;;3.67;3.05;;;20.10;33.70;;;;;;5051474;28;20364;-51
2022/12/09 01:17:43;;;;;;;4.07;3.42;;;20.10;33.70;;;;;;5049369;28;20043;-57
2022/12/09 01:20:10;;;;;;;3.83;3.35;;;20.10;33.70;;;;;;5034370;28;20413;-56
2022/12/09 01:22:36;;;;;;;3.50;2.90;;;20.10;33.70;;;;;;5053367;28;20450;-54
2022/12/09 01:25:02;;;;;;;4.75;3.63;;;20.10;33.70;;;;;;5037340;28;20035;-56
2022/12/09 01:27:31;;;;;;;4.82;3.47;;;20.10;33.70;;;;;;5057226;28;20067;-51
2022/12/09 01:29:57;;;;;;;4.13;3.50;;;20.10;33.70;;;;;;5039110;28;20040;-54
2022/12/09 01:32:23;;;;;;;4.13;3.33;;;20.10;33.70;;;;;;5041213;28;20029;-54
2022/12/09 01:34:49;;;;;;;4.38;3.55;;;20.00;33.70;;;;;;5057749;28;20025;-53
2022/12/09 01:37:15;;;;;;;4.78;3.85;;;20.10;33.70;;;;;;5040028;28;20037;-54
2022/12/09 01:39:42;;;;;;;4.00;3.60;;;20.00;33.70;;;;;;5039808;28;20032;-54
2022/12/09 01:42:20;;;;;;;4.47;3.85;;;20.00;33.70;;;;;;5055986;28;20032;-56
2022/12/09 01:45:29;;;;;;;4.55;4.15;;;20.00;33.70;;;;;;5056857;28;20036;-52
2022/12/09 01:48:10;;;;;;;4.88;4.28;;;20.00;33.80;;;;;;5022067;28;20369;-55
2022/12/09 01:50:38;;;;;;;4.00;3.60;;;20.00;33.70;;;;;;5031602;28;20048;-53
2022/12/09 01:53:05;;;;;;;3.63;3.28;;;20.00;33.80;;;;;;5057666;28;20025;-55
2022/12/09 01:55:32;;;;;;;4.65;3.50;;;20.00;33.80;;;;;;5039671;28;20074;-58
2022/12/09 01:57:58;;;;;;;4.72;3.75;;;20.00;33.90;;;;;;5038432;28;20157;-57
2022/12/09 02:00:24;;;;;;;5.03;3.83;;;20.00;33.80;;;;;;5039314;28;20021;-55
2022/12/09 02:02:53;;;;;;;3.63;3.20;;;20.00;33.80;;;;;;5049004;28;20098;-55
2022/12/09 02:05:23;;;;;;;4.38;3.88;;;20.00;33.80;;;;;;5025751;28;20451;-57
2022/12/09 02:07:54;;;;;;;4.70;3.70;;;20.00;33.90;;;;;;5032336;28;20037;-54
2022/12/09 02:10:20;;;;;;;4.55;3.47;;;20.00;33.90;;;;;;5026369;28;20025;-57
2022/12/09 02:13:25;;;;;;;4.57;3.65;;;20.00;33.90;;;;;;5037431;28;20364;-51
2022/12/09 02:15:56;;;;;;;;;;;20.00;33.90;;;;;;5047841;28;20020;-57
2022/12/09 02:18:40;;;;;;;4.10;3.70;;;19.90;33.80;;;;;;5037435;28;19908;-57
2022/12/09 02:21:11;;;;;;;4.28;3.83;;;19.90;33.80;;;;;;5039816;28;20119;-55
2022/12/09 02:23:50;;;;;;;4.88;3.65;;;19.90;33.80;;;;;;5033596;28;20029;-55
2022/12/09 02:26:22;;;;;;;4.13;3.67;;;19.90;33.80;;;;;;5019358;28;20099;-58
2022/12/09 02:29:12;;;;;;;4.43;3.78;;;19.90;33.80;;;;;;5044413;28;20052;-55
2022/12/09 02:31:57;;;;;;;4.03;3.63;;;19.90;33.80;;;;;;5037703;28;20124;-55
2022/12/09 02:34:27;;;;;;;4.07;3.67;;;19.90;33.90;;;;;;5057092;28;20029;-57
2022/12/09 02:37:15;;;;;;;4.30;3.90;;;19.90;33.90;;;;;;5034891;28;20120;-56
2022/12/09 02:40:02;;;;;;;3.90;3.38;;;19.90;33.80;;;;;;5028627;28;20503;-59
2022/12/09 02:42:32;;;;;;;4.43;3.85;;;19.90;33.80;;;;;;5036262;28;20037;-56
2022/12/09 02:45:04;;;;;;;5.63;4.05;;;19.90;33.80;;;;;;5038700;28;20034;-52
2022/12/09 02:47:33;;;;;;;5.20;4.05;;;19.90;33.80;;;;;;5054314;28;20017;-54
2022/12/09 02:50:06;;;;;;;5.15;4.35;;;19.90;33.80;;;;;;5039115;28;20111;-53
2022/12/09 02:52:34;;;;;;;4.57;4.00;;;19.90;33.80;;;;;;5053820;28;20065;-55
2022/12/09 02:55:04;;;;;;;4.65;3.60;;;19.90;33.80;;;;;;5038622;28;20033;-53
2022/12/09 02:57:33;;;;;;;3.90;3.42;;;19.80;33.70;;;;;;5029450;28;20061;-54
2022/12/09 03:00:00;;;;;;;4.57;3.47;;;19.80;33.70;;;;;;5035954;28;20100;-57
2022/12/09 03:02:35;;;;;;;4.68;3.63;;;19.80;33.70;;;;;;5035831;28;20033;-55
2022/12/09 03:05:01;;;;;;;5.30;4.20;;;19.80;33.70;;;;;;5053544;28;20079;-53
2022/12/09 03:07:29;;;;;;;4.47;3.85;;;19.80;33.70;;;;;;5055916;28;20049;-59
2022/12/09 03:10:06;;;;;;;3.70;3.35;;;19.80;33.70;;;;;;5055310;28;20025;-51
2022/12/09 03:12:33;;;;;;;3.60;3.30;;;19.80;33.70;;;;;;5053849;28;20102;-55
2022/12/09 03:15:03;;;;;;;3.92;3.55;;;19.80;33.80;;;;;;5054647;28;20090;-54
2022/12/09 03:17:33;;;;;;;3.75;3.40;;;19.80;33.70;;;;;;5052527;28;20041;-57
2022/12/09 03:20:08;;;;;;;5.13;3.97;;;19.80;33.80;;;;;;5055214;28;20099;-52
2022/12/09 03:22:36;;;;;;;3.90;3.47;;;19.80;33.70;;;;;;5055088;28;20492;-53
2022/12/09 03:25:08;;;;;;;3.85;3.45;;;19.70;33.70;;;;;;5055646;28;20447;-55
2022/12/09 03:27:40;;;;;;;3.90;3.50;;;19.80;33.70;;;;;;5054558;28;20024;-54
2022/12/09 03:30:09;;;;;;;3.97;3.60;;;19.80;33.70;;;;;;5041339;28;20061;-56
2022/12/09 03:32:37;;;;;;;3.90;3.50;;;19.80;33.60;;;;;;5035843;28;20102;-53
2022/12/09 03:35:34;;;;;;;3.53;3.20;;;19.80;33.60;;;;;;5035814;28;20060;-55
2022/12/09 03:38:05;;;;;;;4.15;3.75;;;19.80;33.60;;;;;;5034012;28;20049;-58
2022/12/09 03:40:32;;;;;;;4.03;3.65;;;19.70;33.60;;;;;;5052792;28;20512;-57
2022/12/09 03:43:07;;;;;;;5.05;3.45;;;19.70;33.60;;;;;;5036880;28;20476;-56
2022/12/09 03:45:33;;;;;;;4.65;3.60;;;19.70;33.60;;;;;;5035793;28;20048;-58
2022/12/09 03:48:00;;;;;;;4.25;3.60;;;19.70;33.50;;;;;;5048371;28;20055;-57
2022/12/09 03:50:33;;;;;;;3.80;3.30;;;19.70;33.50;;;;;;5039401;28;20022;-58
2022/12/09 03:53:13;;;;;;;3.22;2.88;;;19.70;33.60;;;;;;5018389;28;20445;-55
2022/12/09 03:55:56;;;;;;;3.38;3.08;;;19.70;33.50;;;;;;5035176;28;20034;-54
2022/12/09 03:58:23;;;;;;;3.72;3.10;;;19.70;33.50;;;;;;5017367;28;20044;-56
2022/12/09 04:00:49;;;;;;;3.85;3.22;;;19.70;33.40;;;;;;5038754;28;20026;-54
2022/12/09 04:03:16;;;;;;;3.80;3.05;;;19.70;33.50;;;;;;5040969;28;20021;-56
2022/12/09 04:05:42;;;;;;;3.63;3.33;;;19.70;33.40;;;;;;5051177;28;20029;-55
2022/12/09 04:08:09;;;;;;;3.83;3.30;;;19.70;33.40;;;;;;5051517;28;20106;-55
2022/12/09 04:10:35;;;;;;;4.20;3.28;;;19.70;33.40;;;;;;5055399;28;20032;-55
2022/12/09 04:13:00;;;;;;;4.75;3.10;;;19.70;33.40;;;;;;5052395;28;20045;-57
2022/12/09 04:15:26;;;;;;;3.40;3.10;;;19.70;33.40;;;;;;5055043;28;20103;-55
2022/12/09 04:17:52;;;;;;;3.88;3.45;;;19.60;33.30;;;;;;5054082;28;20037;-54
2022/12/09 04:20:18;;;;;;;3.53;3.22;;;19.70;33.40;;;;;;5052841;28;20025;-58
2022/12/09 04:22:44;;;;;;;3.55;3.08;;;19.70;33.40;;;;;;5051860;28;20040;-56
2022/12/09 04:25:10;;;;;;;3.58;3.10;;;19.60;33.30;;;;;;5017641;28;20057;-53
2022/12/09 04:27:35;;;;;;;4.88;3.85;;;19.60;33.30;;;;;;5047240;28;20036;-52
2022/12/09 04:30:03;;;;;;;4.00;3.35;;;19.60;33.30;;;;;;5054860;28;20040;-55
2022/12/09 04:32:30;;;;;;;3.55;3.25;;;19.60;33.30;;;;;;5051341;28;20422;-52
2022/12/09 04:34:56;;;;;;;4.15;3.28;;;19.60;33.30;;;;;;5027084;28;20102;-53
2022/12/09 04:37:22;;;;;;;5.20;3.30;;;19.60;33.40;;;;;;5052295;28;20041;-56
2022/12/09 04:39:47;;;;;;;4.25;3.30;;;19.60;33.40;;;;;;5037277;28;20048;-55
2022/12/09 04:42:13;;;;;;;3.55;2.90;;;19.60;34.00;;;;;;5053751;28;20031;-52
2022/12/09 04:44:39;;;;;;;4.00;2.90;;;19.60;33.30;;;;;;5050679;28;20349;-52
2022/12/09 04:47:05;;;;;;;4.20;3.42;;;19.60;33.30;;;;;;5054610;28;20025;-55
2022/12/09 04:49:31;;;;;;;3.38;3.00;;;19.60;33.40;;;;;;5054444;28;20464;-57
2022/12/09 04:51:57;;;;;;;4.13;3.38;;;19.60;33.40;;;;;;5049299;28;20036;-53
2022/12/09 04:54:23;;;;;;;4.05;3.25;;;19.60;33.40;;;;;;5036803;28;20060;-55
2022/12/09 04:56:49;;;;;;;4.22;3.72;;;19.60;33.40;;;;;;5051201;28;20118;-53
2022/12/09 04:59:15;;;;;;;3.90;3.50;;;19.60;33.40;;;;;;5053788;28;20429;-55
2022/12/09 05:01:41;;;;;;;4.75;3.75;;;19.50;33.30;;;;;;5056635;28;20086;-54
2022/12/09 05:04:07;;;;;;;3.33;3.03;;;19.60;33.40;;;;;;5058349;28;20351;-53
2022/12/09 05:06:33;;;;;;;3.13;2.83;;;19.60;33.40;;;;;;5057141;28;20029;-57
2022/12/09 05:08:59;;;;;;;3.28;2.97;;;19.60;33.40;;;;;;5037727;28;20029;-57
2022/12/09 05:11:25;;;;;;;3.90;3.50;;;19.50;33.30;;;;;;5057952;28;20049;-55
2022/12/09 05:13:52;;;;;;;3.63;3.30;;;19.50;33.30;;;;;;5023658;28;20399;-57
2022/12/09 05:16:18;;;;;;;3.78;3.17;;;19.50;33.30;;;;;;5057258;28;20052;-57
2022/12/09 05:18:46;;;;;;;3.60;2.90;;;19.50;33.30;;;;;;5056551;28;20057;-49
2022/12/09 05:21:18;;;;;;;3.30;2.80;;;19.50;33.30;;;;;;5043668;28;20054;-54
2022/12/09 05:23:44;;;;;;;3.35;2.90;;;19.50;34.00;;;;;;5058326;28;20029;-54
2022/12/09 05:26:13;;;;;;;3.42;2.72;;;19.50;33.30;;;;;;5040943;28;20025;-47
2022/12/09 05:28:39;;;;;;;3.35;3.05;;;19.50;33.30;;;;;;5038065;28;20090;-55
2022/12/09 05:31:08;;;;;;;2.92;2.53;;;19.50;33.30;;;;;;5056895;28;20031;-56
2022/12/09 05:33:34;;;;;;;3.20;2.78;;;19.50;33.30;;;;;;5054211;28;20032;-55
2022/12/09 05:36:00;;;;;;;3.28;2.95;;;19.50;33.20;;;;;;5057917;28;20037;-58
2022/12/09 05:38:26;;;;;;;3.38;2.92;;;19.50;33.20;;;;;;5037475;28;20098;-54
2022/12/09 05:40:52;;;;;;;3.70;2.92;;;19.50;33.20;;;;;;5021148;28;20127;-51
2022/12/09 05:43:18;;;;;;;2.63;2.40;;;19.40;33.10;;;;;;5037338;28;20029;-53
2022/12/09 05:45:44;;;;;;;2.90;2.40;;;19.40;33.10;;;;;;5036649;28;20024;-51
2022/12/09 05:48:10;;;;;;;2.83;2.53;;;19.40;33.20;;;;;;5039606;28;20039;-56
2022/12/09 05:50:36;;;;;;;3.28;2.75;;;19.40;33.20;;;;;;5039484;28;20044;-52
2022/12/09 05:53:03;;;;;;;3.85;2.83;;;19.40;33.20;;;;;;5036266;28;20191;-55
2022/12/09 05:55:28;;;;;;;3.53;3.00;;;19.40;33.20;;;;;;5056553;28;20048;-56
2022/12/09 05:57:54;;;;;;;2.92;2.63;;;19.40;33.10;;;;;;5057598;28;20041;-56
2022/12/09 06:00:21;;;;;;;3.90;2.90;;;19.40;33.10;;;;;;5052439;28;20032;-50
2022/12/09 06:02:47;;;;;;;3.15;2.80;;;19.40;33.20;;;;;;5024995;28;20357;-56
2022/12/09 06:05:13;;;;;;;3.45;2.60;;;19.40;33.30;;;;;;5049591;28;20116;-56
2022/12/09 06:07:39;;;;;;;3.90;2.80;;;19.40;34.00;;;;;;5055064;28;20124;-54
2022/12/09 06:10:05;;;;;;;3.45;2.88;;;19.40;33.30;;;;;;5056288;28;20029;-53
2022/12/09 06:12:31;;;;;;;2.95;2.53;;;19.40;33.30;;;;;;5049694;28;20054;-52
2022/12/09 06:14:57;;;;;;;3.38;2.85;;;19.40;33.30;;;;;;5047428;28;20039;-57
2022/12/09 06:17:23;;;;;;;3.58;3.08;;;19.40;33.20;;;;;;5038796;28;20068;-54
2022/12/09 06:19:49;;;;;;;4.13;2.78;;;19.40;33.10;;;;;;5038955;28;20033;-59
2022/12/09 06:22:15;;;;;;;3.42;2.83;;;19.40;33.00;;;;;;5056000;28;20024;-56
2022/12/09 06:24:41;;;;;;;3.15;2.63;;;19.30;32.90;;;;;;5055376;28;20063;-55
2022/12/09 06:27:06;;;;;;;3.42;2.80;;;19.30;32.90;;;;;;5056805;28;20441;-55
2022/12/09 06:29:32;;;;;;;3.13;2.83;;;19.30;32.90;;;;;;5056403;28;20086;-57
2022/12/09 06:31:58;;;;;;;5.40;3.00;;;19.30;32.90;;;;;;5023554;28;20114;-55
2022/12/09 06:34:26;;;;;;;3.92;2.90;;;19.30;32.90;;;;;;5036808;28;20045;-58
2022/12/09 06:36:52;;;;;;;3.80;3.15;;;19.30;32.90;;;;;;5044542;28;20098;-56
2022/12/09 06:39:18;;;;;;;4.55;2.95;;;19.30;32.90;;;;;;5056461;28;20495;-55
2022/12/09 06:41:44;;;;;;;3.15;2.75;;;19.30;32.90;;;;;;5049339;28;20040;-54
2022/12/09 06:44:11;;;;;;;3.55;2.88;;;19.30;32.90;;;;;;5039259;28;20080;-54
2022/12/09 06:46:37;;;;;;;4.38;3.22;;;19.30;32.90;;;;;;5029771;28;20040;-53
2022/12/09 06:49:03;;;;;;;3.85;3.17;;;19.30;32.90;;;;;;5037141;28;20030;-55
2022/12/09 06:51:29;;;;;;;3.10;2.80;;;19.30;32.90;;;;;;5047418;28;20039;-56
2022/12/09 06:53:54;;;;;;;3.40;2.60;;;19.30;32.90;;;;;;5056092;28;20086;-54
2022/12/09 06:56:20;;;;;;;5.50;2.60;;;19.30;32.90;;;;;;5035815;28;20094;-56
2022/12/09 06:58:47;;;;;;;3.42;2.90;;;19.30;33.00;;;;;;5036444;28;20112;-51
2022/12/09 07:01:14;;;;;;;3.40;2.72;;;19.30;32.90;;;;;;5036039;28;20038;-54
2022/12/09 07:03:42;;;;;;;3.78;2.70;;;19.30;33.10;;;;;;5027411;28;20031;-56
2022/12/09 07:06:19;;;;;;;3.20;2.65;;;19.30;33.30;;;;;;5035906;28;20069;-55
2022/12/09 07:08:45;;;;;;;2.83;2.60;;;19.30;33.20;;;;;;5019643;28;20029;-55
2022/12/09 07:11:11;;;;;;;3.00;2.45;;;19.20;33.10;;;;;;5055412;28;20033;-58
2022/12/09 07:13:36;;;;;;;2.88;2.38;;;19.20;33.10;;;;;;5055671;28;20883;-57
2022/12/09 07:16:02;;;;;;;2.67;2.40;;;19.20;33.10;;;;;;5054218;28;20107;-58
2022/12/09 07:18:28;;;;;;;3.45;2.60;;;19.20;33.10;;;;;;5055596;28;20037;-57
2022/12/09 07:20:54;;;;;;;3.60;2.50;;;19.20;33.00;;;;;;5038913;28;20034;-50
2022/12/09 07:23:21;;;;;;;3.03;2.50;;;19.20;33.00;;;;;;5034642;28;20053;-51
2022/12/09 07:25:55;;;;;;;3.95;2.80;;;19.20;33.00;;;;;;5018505;28;20050;-56
2022/12/09 07:28:21;;;;;;;3.58;2.80;;;19.20;32.90;;;;;;5035587;28;20033;-58
2022/12/09 07:30:47;;;;;;;2.78;2.45;;;19.20;32.90;;;;;;5048616;28;20413;-58
2022/12/09 07:33:13;;;;;;;3.55;2.65;;;19.20;32.80;;;;;;5037899;28;20068;-52
2022/12/09 07:35:39;;;;;;;3.00;2.50;;;19.20;32.80;;;;;;5055847;28;20037;-54
2022/12/09 07:38:04;;;;;;;2.90;2.40;;;19.20;32.80;;;;;;5055161;28;20075;-55
2022/12/09 07:40:30;;;;;;;3.10;2.47;;;19.20;32.80;;;;;;5055800;28;20413;-56
2022/12/09 07:42:56;;;;;;;5.55;2.58;;;19.20;32.80;;;;;;5037485;28;20020;-53
2022/12/09 07:45:22;;;;;;;3.55;2.55;;;19.20;32.70;;;;;;5020946;28;20017;-53
2022/12/09 07:47:48;;;;;;;3.67;2.70;;;19.20;32.70;;;;;;5052443;28;20037;-57
2022/12/09 07:50:14;;;;;;;3.35;2.30;;;19.20;32.70;;;;;;5054615;28;20478;-57
2022/12/09 07:52:39;;;;;;;3.03;2.58;;;19.20;32.60;;;;;;5047888;28;20067;-57
2022/12/09 07:55:06;;;;;;;3.28;2.67;;;19.20;32.70;;;;;;5020731;28;20030;-54
2022/12/09 07:57:33;;;;;;;3.15;2.65;;;19.20;32.70;;;;;;5055322;28;20052;-54
2022/12/09 07:59:59;;;;;;;4.13;2.67;;;19.20;32.70;;;;;;5050909;28;20021;-54
2022/12/09 08:02:25;;;;;;;4.18;2.53;;;19.20;32.80;;;;;;5054672;28;20040;-54
2022/12/09 08:04:51;;;;;;;2.70;2.42;;;19.20;32.80;;;;;;5053633;28;20035;-57
2022/12/09 08:07:16;;;;;;;3.00;2.70;;;19.20;32.70;;;;;;5052726;28;20103;-54
2022/12/09 08:09:42;;;;;;;2.83;2.20;;;19.20;32.70;;;;;;5036870;28;20060;-58
2022/12/09 08:12:11;;;;;;;3.53;2.28;;;19.20;32.80;;;;;;5045470;28;20041;-53
2022/12/09 08:14:36;;;;;;;3.05;2.03;;;19.20;32.80;;;;;;5032991;28;20350;-55
2022/12/09 08:17:02;;;;;;;2.42;2.15;;;19.20;32.80;;;;;;5017277;28;20048;-58
2022/12/09 08:19:28;;;;;;;2.33;2.00;;;19.20;32.80;;;;;;5035639;28;20414;-56
2022/12/09 08:21:54;;;;;;;3.13;2.08;;;19.30;32.80;;;;;;5037135;28;20098;-55
2022/12/09 08:24:20;;;;;;;2.10;1.80;;;19.30;32.80;;;;;;5054502;28;20449;-57
2022/12/09 08:26:49;;;;;;;2.88;1.98;;;19.40;32.90;;;;;;5036675;28;20033;-55
2022/12/09 08:29:19;;;;;;;2.20;2.00;;;19.40;32.90;;;;;;5054340;28;20091;-59
2022/12/09 08:31:45;;;;;;;3.22;2.20;;;19.50;32.90;;;;;;5054576;28;20041;-56
2022/12/09 08:34:12;;;;;;;2.55;2.17;;;19.50;32.90;;;;;;5053834;28;20050;-56
2022/12/09 08:36:38;;;;;;;3.00;2.30;;;19.60;32.90;;;;;;5053801;28;20125;-58
2022/12/09 08:39:05;;;;;;;2.30;2.10;;;19.70;32.90;;;;;;5032443;28;20037;-57
2022/12/09 08:41:34;;;;;;;3.30;2.33;;;19.70;32.80;;;;;;5051570;28;20036;-58
2022/12/09 08:44:21;;;;;;;2.85;2.30;;;19.80;32.80;;;;;;5057456;28;20017;-54
2022/12/09 08:46:50;;;;;;;2.85;2.22;;;19.90;32.70;;;;;;5046191;28;20041;-55
2022/12/09 08:49:18;;;;;;;2.67;2.13;;;20.00;32.70;;;;;;5042461;28;20025;-58
2022/12/09 08:51:46;;;;;;;2.63;2.03;;;20.00;32.70;;;;;;5047060;28;20029;-57
2022/12/09 08:54:12;;;;;;;2.65;2.20;;;20.10;32.70;;;;;;5040420;28;20449;-54
2022/12/09 08:56:37;;;;;;;3.17;2.55;;;20.10;32.60;;;;;;5058257;28;20044;-60
2022/12/09 08:59:04;;;;;;;4.53;3.17;;;20.20;32.60;;;;;;5057859;28;20182;-55
2022/12/09 09:01:33;;;;;;;3.08;2.50;;;20.30;32.60;;;;;;5057835;28;20032;-57
2022/12/09 09:04:10;;;;;;;3.80;3.13;;;20.30;32.50;;;;;;5055821;28;20044;-53
2022/12/09 09:06:38;;;;;;;3.78;2.85;;;20.40;32.50;;;;;;5057896;28;20111;-59
2022/12/09 09:09:06;;;;;;;3.58;2.67;;;20.50;32.40;;;;;;5040586;28;20026;-56
2022/12/09 09:11:32;;;;;;;4.28;2.88;;;20.50;32.40;;;;;;5056972;28;20392;-54
2022/12/09 09:13:58;;;;;;;4.28;3.10;;;20.60;32.30;;;;;;5058408;28;20274;-55
2022/12/09 09:16:25;;;;;;;3.38;2.53;;;20.60;32.20;;;;;;5033362;28;20033;-62
2022/12/09 09:18:54;;;;;;;3.47;2.85;;;20.70;32.50;;;;;;5050604;28;20078;-62
2022/12/09 09:21:22;;;;;;;3.80;2.35;;;20.70;32.70;;;;;;5047642;28;20040;-62
2022/12/09 09:23:50;;;;;;;2.97;2.50;;;20.80;32.90;;;;;;5018849;28;20087;-62
2022/12/09 09:26:24;;;;;;;3.35;2.47;;;20.90;33.00;;;;;;5040912;28;20407;-61
2022/12/09 09:28:52;;;;;;;3.75;2.53;;;21.00;33.10;;;;;;5036823;28;20033;-63
2022/12/09 09:31:21;;;;;;;3.85;2.63;;;21.10;33.10;;;;;;5039517;28;20063;-60
2022/12/09 09:33:48;;;;;;;5.13;2.17;;;21.20;33.20;;;;;;5031969;28;20029;-60
2022/12/09 09:36:20;;;;;;;3.92;2.40;;;21.40;33.10;;;;;;5039604;28;20088;-60
2022/12/09 09:38:47;;;;;;;3.40;2.33;;;21.50;33.00;;;;;;5054964;28;20037;-57
2022/12/09 09:41:24;;;;;;;3.67;2.35;;;21.70;32.90;;;;;;5047341;28;20037;-59
2022/12/09 09:43:50;;;;;;;;;;;21.80;32.60;;;;;;5035831;28;20064;-52
2022/12/09 09:46:43;;;;;;;3.40;2.38;;;21.90;32.50;;;;;;5036817;28;19916;-54
2022/12/09 09:49:19;;;;;;;2.95;2.60;;;22.00;32.20;;;;;;5056977;28;20376;-53
2022/12/09 09:51:46;;;;;;;3.38;2.30;;;22.20;31.80;;;;;;5056788;28;20029;-58
2022/12/09 09:54:14;;;;;;;2.60;1.95;;;22.30;31.60;;;;;;5057266;28;20036;-56
2022/12/09 09:56:52;;;;;;;2.80;2.10;;;22.30;31.30;;;;;;5056547;28;20025;-58
2022/12/09 09:59:36;;;;;;;3.00;2.35;;;22.30;31.10;;;;;;5057026;28;20025;-56
2022/12/09 10:02:10;;;;;;;3.08;2.25;;;22.30;30.90;;;;;;5057130;28;20021;-57
2022/12/09 10:05:14;;;;;;;3.17;2.15;;;22.30;30.80;;;;;;5057016;28;20040;-56
2022/12/09 10:07:42;;;;;;;2.92;2.33;;;22.30;30.70;;;;;;5056423;28;20033;-52
2022/12/09 10:10:45;;;;;;;2.88;2.20;;;22.30;30.70;;;;;;5064172;28;20471;-53
2022/12/09 10:13:17;;;;;;;3.53;2.42;;;22.20;30.60;;;;;;5077394;28;20336;-53
2022/12/09 10:16:08;;;;;;;2.42;2.00;;;22.20;30.60;;;;;;5054708;28;20048;-57
2022/12/09 10:19:00;;;;;;;3.05;2.00;;;22.20;30.60;;;;;;5040916;28;20056;-57
2022/12/09 10:21:27;;;;;;;3.45;1.77;;;22.10;30.60;;;;;;5053965;28;20044;-56
2022/12/09 10:23:54;;;;;;;2.80;2.10;;;22.10;30.60;;;;;;5038907;28;20061;-57
2022/12/09 10:26:27;;;;;;;2.53;2.10;;;22.00;30.50;;;;;;5037105;28;20029;-58
2022/12/09 10:29:28;;;;;;;2.85;2.03;;;22.00;30.50;;;;;;5049943;28;20024;-57
2022/12/09 10:31:54;;;;;;;3.05;2.20;;;22.00;30.50;;;;;;5031640;28;20512;-56
2022/12/09 10:34:20;;;;;;;6.10;2.47;;;21.90;30.50;;;;;;5050755;28;20530;-57
2022/12/09 10:36:46;;;;;;;3.03;2.10;;;21.90;30.50;;;;;;5049629;28;20032;-56
2022/12/09 10:39:18;;;;;;;2.67;2.00;;;21.80;30.50;;;;;;5051180;28;20029;-57
2022/12/09 10:44:35;;;;;;;3.60;2.10;;;21.80;30.60;;;;;;5032389;28;20468;-55
2022/12/09 10:47:22;;;;;;;2.83;2.33;;;21.70;30.50;;;;;;5047368;28;20463;-58
2022/12/09 10:49:50;;;;;;;2.65;1.98;;;21.70;30.60;;;;;;5051816;28;20037;-57
2022/12/09 10:52:29;;;;;;;2.78;2.50;;;21.70;30.60;;;;;;5033935;28;20040;-54
2022/12/09 10:54:56;;;;;;;2.67;2.28;;;21.60;30.60;;;;;;5050732;28;20029;-53
2022/12/09 10:57:28;;;;;;;3.55;2.70;;;21.60;30.70;;;;;;5028537;28;20471;-53
2022/12/09 11:00:18;;;;;;;3.15;2.30;;;21.60;30.70;;;;;;5050408;28;20048;-56
2022/12/09 11:02:50;;;;;;;3.28;2.25;;;21.50;30.70;;;;;;5050654;28;20025;-60
2022/12/09 11:05:26;;;;;;;3.67;2.17;;;21.50;30.80;;;;;;5030594;28;20360;-60
2022/12/09 11:07:54;;;;;;;5.20;2.50;;;21.50;30.90;;;;;;5030478;28;20068;-53
2022/12/09 11:10:23;;;;;;;3.70;2.17;;;21.50;31.00;;;;;;5055413;28;20455;-56
2022/12/09 11:13:07;;;;;;;6.50;2.78;;;21.40;31.10;;;;;;5025769;28;20045;-57
2022/12/09 11:15:45;;;;;;;3.58;2.63;;;21.40;31.10;;;;;;5055340;28;20031;-58
2022/12/09 11:18:30;;;;;;;3.88;2.60;;;21.40;31.20;;;;;;5036928;28;20037;-59
2022/12/09 11:21:04;;;;;;;3.63;2.60;;;21.40;31.20;;;;;;5017696;28;20034;-55
2022/12/09 11:23:31;;;;;;;3.53;2.40;;;21.30;31.20;;;;;;5038136;28;20468;-56
2022/12/09 11:26:00;;;;;;;3.15;2.30;;;21.30;31.10;;;;;;5054723;28;20460;-54
2022/12/09 11:28:33;;;;;;;4.13;2.55;;;21.30;31.10;;;;;;5055227;28;20104;-56
2022/12/09 11:31:11;;;;;;;2.85;2.47;;;21.30;31.10;;;;;;5037684;28;20111;-53
2022/12/09 11:33:47;;;;;;;4.15;2.40;;;21.30;31.10;;;;;;5036673;28;20349;-56
2022/12/09 11:36:26;;;;;;;4.55;2.63;;;21.20;31.00;;;;;;5042092;28;20025;-55
2022/12/09 11:39:06;;;;;;;4.47;2.83;;;21.20;31.00;;;;;;5050043;28;20029;-57
2022/12/09 11:44:25;;;;;;;3.40;2.63;;;21.20;31.10;;;;;;5052139;28;20048;-57
2022/12/09 11:47:08;;;;;;;3.65;2.83;;;21.20;31.10;;;;;;5043389;28;20113;-53
2022/12/09 11:49:46;;;;;;;4.05;2.80;;;21.20;31.10;;;;;;5051344;28;20056;-58
2022/12/09 11:52:17;;;;;;;3.20;2.53;;;21.10;31.00;;;;;;5027013;28;20040;-58
2022/12/09 11:55:06;;;;;;;4.18;3.20;;;21.10;31.00;;;;;;5018064;28;20353;-52
2022/12/09 11:58:03;;;;;;;4.00;2.30;;;21.10;31.00;;;;;;5053754;28;20352;-57
2022/12/09 12:00:50;;;;;;;3.53;2.53;;;21.10;31.00;;;;;;5028791;28;20121;-59
2022/12/09 12:03:30;;;;;;;4.75;2.75;;;21.10;31.00;;;;;;5030851;28;20090;-56
2022/12/09 12:05:59;;;;;;;5.32;2.70;;;21.10;31.20;;;;;;5033524;28;20021;-57
2022/12/09 12:08:45;;;;;;;6.95;3.35;;;21.00;31.30;;;;;;5042842;28;20108;-56
2022/12/09 12:11:24;;;;;;;6.35;2.50;;;21.00;31.20;;;;;;5034354;28;20034;-54
2022/12/09 12:14:03;;;;;;;4.00;2.67;;;21.00;31.30;;;;;;5040642;28;20360;-59
2022/12/09 12:16:36;;;;;;;4.47;2.88;;;21.00;31.30;;;;;;5054297;28;20463;-60
2022/12/09 12:19:31;;;;;;;4.53;2.60;;;20.90;31.30;;;;;;5020178;28;20030;-58
2022/12/09 12:22:41;;;;;;;4.95;2.30;;;21.00;31.30;;;;;;5034715;28;20041;-58
2022/12/09 12:25:22;;;;;;;5.25;2.55;;;20.90;31.30;;;;;;5034369;28;20310;-55
2022/12/09 12:28:25;;;;;;;4.38;2.95;;;20.90;31.30;;;;;;5034957;28;20029;-56
2022/12/09 12:31:09;;;;;;;4.10;2.50;;;20.90;31.30;;;;;;5035459;28;20094;-56
2022/12/09 12:33:47;;;;;;;4.93;2.43;;;20.80;31.20;;;;;;5048007;28;20093;-59
2022/12/09 12:36:34;;;;;;;4.45;2.33;;;20.80;31.20;;;;;;5055014;28;20351;-58
2022/12/09 12:39:32;;;;;;;3.42;2.30;;;20.90;31.20;;;;;;5053962;28;20444;-59
2022/12/09 12:42:18;;;;;;;3.30;2.15;;;20.80;31.20;;;;;;5054444;28;20029;-55
2022/12/09 12:48:13;;;;;;;3.90;2.42;;;20.80;31.10;;;;;;5034627;28;20040;-58
2022/12/09 12:51:06;;;;;;;3.47;2.30;;;20.80;31.10;;;;;;5034518;28;20041;-55
2022/12/09 12:54:10;;;;;;;3.97;2.67;;;20.80;31.10;;;;;;5034676;28;20176;-56
2022/12/09 12:56:52;;;;;;;4.00;2.35;;;20.70;31.10;;;;;;5013273;28;20065;-55
2022/12/09 12:59:39;;;;;;;2.95;1.80;;;20.80;31.10;;;;;;5054785;28;20033;-58
2022/12/09 13:02:17;;;;;;;4.45;2.28;;;20.70;31.00;;;;;;5054523;28;20028;-57
2022/12/09 13:04:46;;;;;;;3.90;2.10;;;20.70;31.00;;;;;;5054624;28;20032;-56
2022/12/09 13:07:12;;;;;;;4.13;2.47;;;20.70;31.00;;;;;;5051553;28;20060;-55
2022/12/09 13:09:44;;;;;;;4.80;2.45;;;20.70;31.00;;;;;;5034549;28;20072;-57
2022/12/09 13:12:52;;;;;;;4.00;2.70;;;20.70;31.00;;;;;;5034234;28;20137;-58
2022/12/09 13:15:17;;;;;;;4.05;2.65;;;20.70;31.00;;;;;;5033313;28;20107;-57
2022/12/09 13:17:46;;;;;;;2.65;2.28;;;20.70;31.00;;;;;;5035112;28;20124;-55